• Join FlightAware (Why Join?)
  • Login
  • US Flag 
12:24AM EST


 

Airport Tracker/Info


-or-


 

Live Flight TrackerFlight Track Log ✈ AAL1370 ✈ 06-May-2013 ✈ KPSP - KORD

Flight Track Log - Related Links

Times and Time Zones

All times are in EDT time to prevent confusion due to time zone crossing. See the AAL1370 flight status page for this flight to view local times or setup timezone preferences in your user account.

Time Position Orientation Groundspeed Altitude Reporting Facility
EDT Latitude Longitude Course Direction KTS MPH feet Rate Location/Type
03:50PM 33.9083 -116.5642 90° East 216 249 31,000  Level Los Angeles Center
03:51PM 33.9743 -116.1081 66° East  Level FlightAware Approximate
03:52PM 34.0268 -115.9764 66° East  Level FlightAware Approximate
03:52PM 33.9667 -116.3833 69° East 291 335 8,700  Level Southern California TRACON
03:53PM 34.0762 -115.8428 64° Northeast  Level FlightAware Approximate
03:53PM 33.9800 -116.3167 76° East 296 341 10,400  Level Los Angeles Center
03:54PM 34.1000 -115.7028 90° East  Level FlightAware Approximate
03:54PM 34.0039 -116.2111 75° East 332 382 11,200  Level Los Angeles Center
03:55PM 34.1000 -115.5564 90° East  Level FlightAware Approximate
03:56PM 34.1000 -115.4099 90° East  Level FlightAware Approximate
03:56PM 34.0848 -116.0282 66° East  Level Estimated
03:56PM 34.0764 -115.9203 66° East 422 486 15,600  Level Los Angeles Center
03:57PM 34.1067 -115.7794 75° East 431 496 18,000 1,560 Climbing Los Angeles Center
03:59PM 34.1094 -115.4653 89° East 461 531 20,500 1,260 Climbing Albuquerque Center
04:00PM 34.1069 -115.3083 91° East 485 558 22,100 1,440 Climbing Los Angeles Center
04:02PM 34.1044 -114.9631 90° East 505 581 25,100 1,440 Climbing Albuquerque Center
04:03PM 34.1025 -114.7914 91° East 510 587 26,600 1,320 Climbing Albuquerque Center
04:04PM 34.1272 -114.5861 82° East 521 600 27,900 1,200 Climbing Albuquerque Center
04:05PM 34.1733 -114.4194 71° East 524 603 29,200 960 Climbing Albuquerque Center
04:07PM 34.2689 -114.0844 71° East 528 608 31,000 540 Climbing Albuquerque Center
04:09PM 34.3150 -113.9178 71° East 525 604 31,000  Level Albuquerque Center
04:10PM 34.3881 -113.6506 72° East 532 612 31,000  Level Los Angeles Center
04:11PM 34.4169 -113.5483 71° East 531 611 31,000 -60 Level Albuquerque Center
04:12PM 34.4797 -113.3128 72° East 531 611 30,900 -60 Descending Los Angeles Center
04:13PM 34.5072 -113.2125 72° East 531 611 30,900 60 Level Albuquerque Center
04:15PM 34.5972 -112.8744 72° East 532 612 31,100 180 Climbing Albuquerque Center
04:17PM 34.6950 -112.5075 72° East 527 606 31,800 420 Climbing Albuquerque Center
04:19PM 34.7722 -112.1717 74° East 522 601 33,000 360 Climbing Albuquerque Center
04:20PM 34.8100 -112.0044 75° East 519 597 33,000  Level Albuquerque Center
04:21PM 34.8481 -111.8372 74° East 518 596 33,000  Level Albuquerque Center
04:22PM 34.8881 -111.6553 75° East 520 598 33,000  Level Albuquerque Center
04:23PM 34.9267 -111.4861 74° East 520 598 33,000 -60 Level Albuquerque Center
04:25PM 35.0083 -111.1119 75° East 518 596 32,900  Descending Albuquerque Center
04:27PM 35.0858 -110.7594 75° East 519 597 33,100  Climbing Albuquerque Center
04:29PM 35.1302 -110.5479 76° East  Level FlightAware Approximate
04:29PM 35.1625 -110.4058 76° East 520 598 33,100  Level Albuquerque Center
04:30PM 35.1978 -110.2439 75° East 518 596 33,100 -60 Level Albuquerque Center
04:31PM 35.2369 -110.0550 76° East 516 594 33,000 -60 Descending Albuquerque Center
04:32PM 35.2706 -109.8936 76° East 513 590 33,000  Level Albuquerque Center
04:34PM 35.3085 -109.6989 77° East  Level FlightAware Approximate
04:34PM 35.3408 -109.5447 77° East 510 587 33,000  Level Albuquerque Center
04:35PM 35.3736 -109.3831 76° East 511 588 33,000  Level Albuquerque Center
04:36PM 35.4114 -109.1961 76° East 509 586 33,000  Level Albuquerque Center
04:37PM 35.4431 -109.0358 76° East 509 586 33,000  Level Albuquerque Center
04:39PM 35.5244 -108.6939 74° East 506 582 33,100  Climbing Albuquerque Center
04:40PM 35.5739 -108.5136 71° East 503 579 33,100 -60 Level Albuquerque Center
04:42PM 35.6139 -108.3558 73° East  Level FlightAware Approximate
04:42PM 35.6633 -108.1817 73° East 495 570 33,000  Level Albuquerque Center
04:45PM 35.7481 -107.8567 72° East 483 556 33,000  Level Albuquerque Center
04:46PM 35.7875 -107.7072 72° East 481 554 33,000  Level Albuquerque Center
04:48PM 35.8481 -107.4203 74° East  Level FlightAware Approximate
04:50PM 35.9486 -107.0908 72° East 474 545 33,000  Level Albuquerque Center
04:52PM 36.0353 -106.7519 72° East 469 540 33,000  Level Albuquerque Center
04:53PM 36.0742 -106.5969 73° East 470 541 33,000  Level Albuquerque Center
04:54PM 36.1131 -106.4431 73° East 470 541 33,000  Level Albuquerque Center
04:55PM 36.1125 -106.3970 72° East  Level FlightAware Approximate
04:55PM 36.1514 -106.2883 73° East 469 540 33,100  Level Albuquerque Center
04:57PM 36.2269 -105.9822 73° East 465 535 33,000 -120 Descending Albuquerque Center
04:58PM 36.2708 -105.7992 73° East 462 532 32,900 -60 Descending Albuquerque Center
04:59PM 36.3075 -105.6475 73° East 460 529 32,900  Level Albuquerque Center
05:00PM 36.3439 -105.4908 74° East 464 534 33,000  Climbing Albuquerque Center
05:01PM 36.3811 -105.3375 73° East 462 532 33,000  Level Albuquerque Center
05:03PM 36.4292 -105.1171 75° East  Level FlightAware Approximate
05:03PM 36.4544 -105.0258 75° East 463 533 33,100  Level Albuquerque Center
05:04PM 36.4919 -104.8711 73° East 463 533 33,100 -60 Level Albuquerque Center
05:06PM 36.5629 -104.6769 66° East  Level FlightAware Approximate
05:07PM 36.6514 -104.4339 66° East 460 529 32,900  Level Kansas City Center
05:08PM 36.7042 -104.2894 65° Northeast 459 528 33,100 60 Climbing Kansas City Center
05:09PM 36.7561 -104.1442 66° East 459 528 33,100 -60 Level Kansas City Center
05:10PM 36.8072 -104.0017 66° East 452 520 33,000 -60 Descending Kansas City Center
05:11PM 36.8711 -103.8256 66° East 447 514 33,000  Level Albuquerque Center
05:12PM 36.9186 -103.6911 66° East 445 512 33,000 -60 Level Albuquerque Center
05:13PM 36.9168 -103.6887 66° East  Level FlightAware Approximate
05:13PM 36.9736 -103.5344 66° East 444 511 32,900  Level Albuquerque Center
05:14PM 37.0214 -103.3994 66° East 445 512 32,900  Level Albuquerque Center
05:15PM 37.0769 -103.2383 67° East 450 518 33,000  Climbing Albuquerque Center
05:16PM 37.1256 -103.1006 66° East 452 520 33,000  Level Albuquerque Center
05:18PM 37.2267 -102.8064 67° East 461 531 33,000  Level Kansas City Center
05:19PM 37.2761 -102.6650 66° East 464 534 33,000  Level Kansas City Center
05:21PM 37.3819 -102.3525 67° East 469 540 33,100  Climbing Kansas City Center
05:24PM 37.4869 -102.0383 67° East 470 541 33,000 -120 Descending Kansas City Center
05:25PM 37.5450 -101.8689 67° East 473 544 32,900  Descending Albuquerque Center
05:26PM 37.5931 -101.7206 68° East 475 547 33,000  Climbing Kansas City Center
05:28PM 37.6695 -101.4418 66° East  Level FlightAware Approximate
05:32PM 37.9156 -100.7344 67° East 487 560 33,100  Level Kansas City Center
05:34PM 37.9958 -100.4902 67° East  Level FlightAware Approximate
05:35PM 38.0120 -100.4326 67° East  Level FlightAware Approximate
05:35PM 38.0758 -100.2581 67° East 484 557 33,000  Level Kansas City Center
05:36PM 38.0602 -100.2877 67° East  Level FlightAware Approximate
05:36PM 38.1264 -100.1067 67° East 485 558 33,100  Level Kansas City Center
05:37PM 38.1083 -100.1426 67° East  Level FlightAware Approximate
05:37PM 38.1839 -99.9336 67° East 478 550 33,100  Level Kansas City Center
05:38PM 38.2333 -99.7869 67° East 473 544 33,000  Descending Kansas City Center
05:40PM 38.3024 -99.5729 68° East  Level FlightAware Approximate
05:41PM 38.3900 -99.3072 68° East 475 547 33,100  Level Kansas City Center
05:42PM 38.4422 -99.1511 67° East 476 548 33,100  Level Kansas City Center
05:43PM 38.4931 -98.9942 67° East 477 549 33,100 -60 Level Kansas City Center
05:44PM 38.5433 -98.8389 67° East 474 545 33,000 -120 Descending Kansas City Center
05:45PM 38.5939 -98.6817 68° East 475 547 32,900  Descending Kansas City Center
05:46PM 38.6539 -98.4947 68° East 473 544 33,000 60 Climbing Kansas City Center
05:47PM 38.6269 -98.5455 68° East  Level FlightAware Approximate
05:48PM 38.7514 -98.1836 68° East 469 540 33,100  Level Kansas City Center
05:49PM 38.7994 -98.0281 68° East 468 539 33,000 -120 Descending Kansas City Center
05:50PM 38.8481 -97.8722 68° East 469 540 32,900  Descending Kansas City Center
05:51PM 38.9031 -97.6983 68° East 468 539 33,000 60 Climbing Kansas City Center
05:52PM 38.9467 -97.5458 70° East 474 545 33,100  Climbing Kansas City Center
05:54PM 38.9925 -97.3664 72° East 467 537 33,000 -60 Descending Kansas City Center
05:56PM 39.0744 -97.0625 71° East 468 539 33,000  Level Kansas City Center
05:57PM 39.1200 -96.8847 72° East 468 539 33,000 -60 Level Kansas City Center
05:58PM 39.1592 -96.7311 72° East 469 540 32,900  Descending Kansas City Center
05:59PM 39.2056 -96.5525 71° East 471 542 33,000  Climbing Kansas City Center
06:01PM 39.2634 -96.2661 75° East  Level FlightAware Approximate
06:02PM 39.3261 -96.0631 75° East 470 541 33,100  Level Kansas City Center
06:03PM 39.3722 -95.8828 72° East 472 543 33,100 -60 Level Kansas City Center
06:05PM 39.4481 -95.5722 72° East 470 541 33,000 -120 Descending Kansas City Center
06:06PM 39.4908 -95.3947 73° East 467 537 32,900  Descending Kansas City Center
06:07PM 39.5342 -95.2228 72° East 466 536 33,000  Climbing Kansas City Center
06:08PM 39.5678 -95.0819 73° East 467 537 33,000  Level Kansas City Center
06:09PM 39.6103 -94.9019 73° East 465 535 33,100  Climbing Kansas City Center
06:11PM 39.6906 -94.5669 73° East 469 540 33,000 -60 Descending Kansas City Center
06:12PM 39.7261 -94.4117 73° East 468 539 33,000  Level Kansas City Center
06:14PM 39.7607 -94.2029 78° East  Level FlightAware Approximate
06:15PM 39.8475 -93.8808 73° East 467 537 33,000  Level Chicago Center
06:16PM 39.8764 -93.7528 74° East 466 536 32,200 -960 Descending Kansas City Center
06:17PM 39.9128 -93.5947 73° East 460 529 31,200 -960 Descending Kansas City Center
06:18PM 39.9556 -93.4044 74° East 461 531 30,300 -960 Descending Kansas City Center
06:19PM 39.9900 -93.2461 74° East 460 529 29,300 -840 Descending Kansas City Center
06:20PM 40.0264 -93.0883 73° East 459 528 28,600 -840 Descending Kansas City Center
06:21PM 40.0131 -93.1134 73° East  Level FlightAware Approximate
06:21PM 40.0611 -92.9306 74° East 458 527 27,600  Level Kansas City Center
06:22PM 40.1006 -92.7436 75° East 460 529 27,000 -240 Descending Kansas City Center
06:24PM 40.2000 -92.4139 68° East 467 537 27,000  Level Kansas City Center
06:25PM 40.2469 -92.2792 65° Northeast 470 541 27,000  Level Kansas City Center
06:28PM 40.3686 -91.9372 65° Northeast 478 550 27,000  Level Kansas City Center
06:29PM 40.4247 -91.7811 65° Northeast 479 551 27,000  Level Kansas City Center
06:30PM 40.4769 -91.6233 66° East 476 548 27,000  Level Kansas City Center
06:31PM 40.5303 -91.4658 66° East 476 548 27,000  Level Kansas City Center
06:32PM 40.5944 -91.2761 66° East 478 550 27,000  Level Kansas City Center
06:33PM 40.6556 -91.1033 65° Northeast 479 551 27,000  Level Chicago Center
06:35PM 40.7739 -90.7544 66° East 473 544 27,000  Level Chicago Center
06:36PM 40.8275 -90.5956 66° East 473 544 27,000  Level Chicago Center
06:37PM 40.8817 -90.4361 66° East 473 544 27,000 -720 Level Chicago Center
06:38PM 40.9336 -90.2767 67° East 471 542 25,600 -1,320 Descending Chicago Center
06:39PM 40.9836 -90.1269 66° East 455 524 24,300 -660 Descending Chicago Center
06:41PM 41.0545 -89.9106 66° East  Level FlightAware Approximate
06:43PM 41.1975 -89.4908 62° Northeast 440 506 22,400  Level Chicago Center
06:44PM 41.2553 -89.3514 61° Northeast 429 494 19,900 -2,340 Descending Chicago Center
06:46PM 41.3260 -89.1647 63° Northeast  Level FlightAware Approximate
06:46PM 41.3594 -89.0897 63° Northeast 360 414 15,200  Level Chicago Center
06:47PM 41.4039 -88.9803 62° Northeast 339 390 12,900 -1,080 Descending Chicago Center
06:48PM 41.4351 -88.8627 61° Northeast  Level FlightAware Approximate
06:49PM 41.4941 -88.7147 62° Northeast  Level FlightAware Approximate
06:49PM 41.4609 -88.8033 67° East  Level FlightAware Approximate
06:49PM 41.4817 -88.7783 67° East 295 339 11,900  Level Chicago Center
06:50PM 41.5206 -88.6831 61° Northeast 294 338 11,000 -480 Descending Chicago Center
06:52PM 41.5564 -88.5636 68° East 289 333 11,000  Level Chicago Center
06:53PM 41.5864 -88.4639 68° East 290 334 11,000 -360 Level Chicago Center
06:54PM 41.6119 -88.3769 69° East 248 285 10,300 -1,020 Descending Chicago Center
06:55PM 41.6367 -88.2983 67° East 232 267 9,000 -1,080 Descending Chicago Center
06:56PM 41.6717 -88.2319 55° Northeast 230 265 8,100 -1,200 Descending Chicago Center
06:57PM 41.7194 -88.1758 41° Northeast 229 264 6,600 -1,140 Descending Chicago Center
06:59PM 41.8081 -88.0708 41° Northeast 196 226 4,600 -960 Descending Chicago Center
07:01PM 41.8769 -87.9900 41° Northeast 170 196 2,700 -960 Descending Chicago Center
07:02PM 41.9167 -87.9500 37° Northeast 151 174 1,700 -840 Descending Chicago TRACON
07:03PM 41.9333 -87.9167 56° Northeast 134 154 1,100 -600 Descending Chicago TRACON